Time;durP1;ratioP1;P1;durP2;ratioP2;P2;SDS_P1;SDS_P2;PMS_P1;PMS_P2;Temp;Humidity;BMP_temperature;BMP_pressure;BME280_temperature;BME280_humidity;BME280_pressure;Samples;Min_cycle;Max_cycle;Signal;HPM_P1;HPM_P2
2022/02/11 00:07:02;;;;;;;2.10;1.70;;;6.20;99.90;;;;;;5075061;28;20228;-63
2022/02/11 00:09:28;;;;;;;3.13;2.10;;;6.20;99.90;;;;;;5065545;28;20523;-63
2022/02/11 00:11:56;;;;;;;1.90;1.73;;;6.20;99.90;;;;;;5079694;28;20265;-65
2022/02/11 00:14:28;;;;;;;3.73;1.80;;;6.10;99.90;;;;;;5080155;28;20186;-64
2022/02/11 00:16:54;;;;;;;3.63;2.20;;;6.10;99.90;;;;;;5079126;28;20190;-62
2022/02/11 00:19:21;;;;;;;2.47;1.80;;;6.10;99.90;;;;;;5065305;28;20521;-63
2022/02/11 00:21:47;;;;;;;2.83;1.70;;;6.00;99.90;;;;;;5070658;28;20313;-65
2022/02/11 00:24:15;;;;;;;5.13;1.63;;;5.90;99.90;;;;;;5064996;28;20197;-63
2022/02/11 00:26:47;;;;;;;5.53;1.73;;;6.00;99.90;;;;;;5074461;28;20183;-63
2022/02/11 00:32:10;;;;;;;5.23;1.90;;;6.10;99.90;;;;;;5065864;28;20225;-63
2022/02/11 00:34:46;;;;;;;4.63;1.80;;;6.10;99.90;;;;;;5080429;28;20814;-62
2022/02/11 00:37:18;;;;;;;2.17;1.80;;;6.10;99.90;;;;;;5068039;28;20194;-63
2022/02/11 01:04:08;;;;;;;3.60;1.90;;;5.80;99.90;;;;;;5063320;28;20182;-66
2022/02/11 01:06:34;;;;;;;2.07;1.70;;;5.80;99.90;;;;;;5064008;28;20656;-66
2022/02/11 01:09:01;;;;;;;3.20;2.00;;;5.80;99.90;;;;;;5081367;28;20209;-65
2022/02/11 01:14:00;;;;;;;2.43;1.70;;;5.80;99.90;;;;;;5067777;28;20702;-66
2022/02/11 01:16:36;;;;;;;1.90;1.70;;;5.80;99.90;;;;;;5063561;28;20179;-65
2022/02/11 01:19:17;;;;;;;3.43;1.73;;;5.80;99.90;;;;;;5074579;28;22250;-66
2022/02/11 01:22:07;;;;;;;3.93;1.73;;;5.80;99.90;;;;;;5080520;28;20239;-65
2022/02/11 01:30:10;;;;;;;6.63;2.20;;;5.80;99.90;;;;;;5069123;28;20528;-65
2022/02/11 01:43:47;;;;;;;2.10;1.90;;;5.80;99.90;;;;;;5065095;28;20202;-65
2022/02/11 01:56:46;;;;;;;2.73;1.70;;;5.90;99.90;;;;;;5082200;28;20182;-66
2022/02/11 02:05:15;;;;;;;3.73;2.10;;;5.90;99.90;;;;;;5067020;28;20217;-65
2022/02/11 02:10:51;;;;;;;1.70;1.60;;;6.00;99.90;;;;;;5083117;28;20182;-65
2022/02/11 02:34:34;;;;;;;2.20;1.80;;;5.80;99.90;;;;;;5073294;28;20721;-65
2022/02/11 02:56:37;;;;;;;1.83;1.50;;;5.90;99.90;;;;;;5085515;28;20186;-65
2022/02/11 02:58:32;;;;;;;2.33;1.73;;;6.00;99.90;;;;;;5086484;28;20699;-66
2022/02/11 04:25:50;;;;;;;3.70;2.10;;;5.50;99.90;;;;;;5084224;28;20260;-66
2022/02/11 04:55:22;;;;;;;3.43;2.00;;;5.60;99.90;;;;;;5068352;28;20178;-65
2022/02/11 05:00:33;;;;;;;5.17;2.33;;;5.70;99.90;;;;;;5065832;28;20214;-65
2022/02/11 05:03:00;;;;;;;2.43;2.17;;;5.70;99.90;;;;;;5084158;28;20582;-65
2022/02/11 05:05:28;;;;;;;3.00;2.10;;;5.60;99.90;;;;;;5081837;28;20212;-65
2022/02/11 05:07:54;;;;;;;7.27;2.40;;;5.50;99.90;;;;;;5081538;28;20938;-65
2022/02/11 05:10:21;;;;;;;2.90;2.20;;;5.50;99.90;;;;;;5078849;28;20225;-64
2022/02/11 05:12:48;;;;;;;4.53;2.30;;;5.50;99.90;;;;;;5080989;28;20209;-65
2022/02/11 05:15:15;;;;;;;3.73;2.20;;;5.50;99.90;;;;;;5070889;28;20272;-65
2022/02/11 05:17:51;;;;;;;2.67;2.20;;;5.50;99.90;;;;;;5079472;28;20635;-65
2022/02/11 05:20:17;;;;;;;3.00;2.20;;;5.50;99.90;;;;;;5077724;28;20275;-65
2022/02/11 05:22:43;;;;;;;3.27;2.20;;;5.50;99.90;;;;;;5075907;28;20751;-65
2022/02/11 05:25:10;;;;;;;3.37;2.17;;;5.60;99.90;;;;;;5076338;28;20202;-65
2022/02/11 05:27:37;;;;;;;5.67;2.47;;;5.50;99.90;;;;;;5076988;28;20191;-65
2022/02/11 05:30:04;;;;;;;3.57;2.40;;;5.50;99.90;;;;;;5066585;28;20198;-65
2022/02/11 05:32:31;;;;;;;2.60;2.27;;;5.60;99.90;;;;;;5077250;28;20202;-65
2022/02/11 05:34:57;;;;;;;2.53;2.23;;;5.50;99.90;;;;;;5073265;28;20193;-65
2022/02/11 05:37:24;;;;;;;2.80;2.40;;;5.60;99.90;;;;;;5083874;28;20204;-65
2022/02/11 05:39:50;;;;;;;5.27;2.10;;;5.60;99.90;;;;;;5078124;28;20605;-65
2022/02/11 05:42:16;;;;;;;4.93;2.30;;;5.60;99.90;;;;;;5052563;28;20317;-65
2022/02/11 05:44:42;;;;;;;4.20;2.10;;;5.60;99.90;;;;;;5070712;28;20267;-65
2022/02/11 05:47:09;;;;;;;3.33;2.10;;;5.60;99.90;;;;;;5082766;28;20186;-65
2022/02/11 05:49:35;;;;;;;2.83;2.27;;;5.60;99.90;;;;;;5087237;28;20274;-65
2022/02/11 05:52:02;;;;;;;8.13;2.13;;;5.70;99.90;;;;;;5085282;28;20277;-65
2022/02/11 05:54:28;;;;;;;2.37;2.17;;;5.70;99.90;;;;;;5071605;28;20186;-65
2022/02/11 05:56:56;;;;;;;3.43;2.30;;;5.80;99.90;;;;;;5089864;28;20339;-65
2022/02/11 05:59:22;;;;;;;2.70;2.33;;;5.80;99.90;;;;;;5084654;28;20213;-65
2022/02/11 06:01:48;;;;;;;3.10;2.30;;;5.90;99.90;;;;;;5067660;28;20194;-65
2022/02/11 06:04:15;;;;;;;3.63;2.10;;;6.00;99.90;;;;;;5069449;28;20191;-66
2022/02/11 06:06:41;;;;;;;3.63;2.83;;;6.10;99.90;;;;;;5070602;28;20254;-65
2022/02/11 06:09:07;;;;;;;3.23;2.13;;;6.20;99.90;;;;;;5071052;28;20277;-65
2022/02/11 06:11:34;;;;;;;3.03;2.37;;;6.30;99.90;;;;;;5074781;28;20271;-66
2022/02/11 06:14:00;;;;;;;3.07;2.30;;;6.30;99.90;;;;;;5087231;28;20182;-65
2022/02/11 06:16:26;;;;;;;4.03;2.50;;;6.30;99.90;;;;;;5088326;28;20197;-64
2022/02/11 06:18:52;;;;;;;3.93;2.60;;;6.40;99.90;;;;;;5087032;28;20276;-66
2022/02/11 06:21:19;;;;;;;3.40;2.37;;;6.40;99.90;;;;;;5077212;28;20229;-66
2022/02/11 06:23:45;;;;;;;2.90;2.50;;;6.50;99.90;;;;;;5088357;28;20229;-65
2022/02/11 06:26:11;;;;;;;2.77;2.23;;;6.60;99.90;;;;;;5074426;28;20876;-66
2022/02/11 06:28:37;;;;;;;3.27;2.70;;;6.60;99.90;;;;;;5085128;28;20273;-66
2022/02/11 06:31:04;;;;;;;4.43;3.17;;;6.70;99.90;;;;;;5085832;28;20213;-65
2022/02/11 06:33:30;;;;;;;3.03;2.67;;;6.80;99.90;;;;;;5085222;28;20214;-65
2022/02/11 06:35:59;;;;;;;3.90;2.00;;;6.80;99.90;;;;;;5088602;28;20194;-66
2022/02/11 06:38:25;;;;;;;6.27;2.40;;;6.80;99.90;;;;;;5085493;28;20225;-66
2022/02/11 06:40:51;;;;;;;4.53;2.47;;;6.90;99.90;;;;;;5094889;28;20203;-65
2022/02/11 06:43:18;;;;;;;2.87;2.40;;;6.90;99.90;;;;;;5073387;28;20186;-65
2022/02/11 06:45:44;;;;;;;3.20;2.50;;;7.00;99.90;;;;;;5087960;28;20174;-66
2022/02/11 06:48:11;;;;;;;6.70;2.43;;;7.00;99.90;;;;;;5069552;28;20188;-66
2022/02/11 06:50:37;;;;;;;4.17;2.17;;;7.10;99.90;;;;;;5084946;28;20340;-65
2022/02/11 06:53:04;;;;;;;2.40;2.20;;;7.10;99.90;;;;;;5069011;28;20190;-65
2022/02/11 06:55:30;;;;;;;2.23;2.03;;;7.10;99.90;;;;;;5071734;28;20183;-66
2022/02/11 06:57:56;;;;;;;2.60;2.17;;;7.20;99.90;;;;;;5087306;28;20189;-65
2022/02/11 07:00:22;;;;;;;4.37;2.30;;;7.30;99.90;;;;;;5075827;28;20264;-66
2022/02/11 07:02:50;;;;;;;4.13;2.60;;;7.30;99.90;;;;;;5092287;28;20186;-65
2022/02/11 07:05:18;;;;;;;2.67;2.23;;;7.40;99.90;;;;;;5074933;28;20190;-66
2022/02/11 07:07:44;;;;;;;3.07;2.40;;;7.50;99.90;;;;;;5086055;28;20209;-65
2022/02/11 07:10:11;;;;;;;3.53;2.23;;;7.60;99.90;;;;;;5082547;28;20190;-66
2022/02/11 07:12:37;;;;;;;4.30;2.10;;;7.60;99.90;;;;;;5085504;28;20291;-65
2022/02/11 07:15:04;;;;;;;6.93;2.37;;;7.70;99.90;;;;;;5080905;28;20190;-65
2022/02/11 07:17:32;;;;;;;4.43;2.50;;;7.70;99.90;;;;;;5080262;28;20190;-65
2022/02/11 07:19:59;;;;;;;5.50;2.23;;;7.80;99.90;;;;;;5061408;28;20216;-65
2022/02/11 07:22:34;;;;;;;4.13;2.63;;;7.90;99.90;;;;;;5087080;28;20500;-66
2022/02/11 07:25:02;;;;;;;3.37;2.30;;;7.90;99.90;;;;;;5077471;28;20272;-65
2022/02/11 07:27:29;;;;;;;2.93;1.87;;;8.00;99.90;;;;;;5079278;28;20183;-65
2022/02/11 07:29:55;;;;;;;5.27;2.37;;;8.00;99.90;;;;;;5067986;28;20187;-65
2022/02/11 07:32:21;;;;;;;3.13;2.00;;;8.10;99.90;;;;;;5082298;28;20198;-65
2022/02/11 07:34:52;;;;;;;2.47;2.13;;;8.10;99.90;;;;;;5071392;28;20246;-66
2022/02/11 07:37:19;;;;;;;2.60;2.23;;;8.10;99.90;;;;;;5075462;28;20190;-66
2022/02/11 07:39:46;;;;;;;2.63;2.17;;;8.10;99.90;;;;;;5077335;28;20895;-65
2022/02/11 07:42:13;;;;;;;4.87;2.37;;;8.30;99.90;;;;;;5068154;28;20202;-65
2022/02/11 07:44:40;;;;;;;3.77;1.93;;;8.30;99.90;;;;;;5071200;28;20263;-66
2022/02/11 07:47:06;;;;;;;2.50;1.90;;;8.40;99.90;;;;;;5065211;28;20839;-65
2022/02/11 07:49:37;;;;;;;3.30;1.90;;;8.40;99.90;;;;;;5087233;28;20272;-66
2022/02/11 07:52:05;;;;;;;4.83;2.13;;;8.50;99.90;;;;;;5079632;28;20930;-65
2022/02/11 07:54:32;;;;;;;3.23;2.00;;;8.50;99.90;;;;;;5074761;28;20190;-66
2022/02/11 07:56:59;;;;;;;2.67;1.63;;;8.50;99.90;;;;;;5086104;28;20194;-66
2022/02/11 07:59:25;;;;;;;4.23;2.03;;;8.50;99.90;;;;;;5082068;28;20237;-66
2022/02/11 08:01:51;;;;;;;6.90;2.20;;;8.60;99.90;;;;;;5067186;28;20183;-65
2022/02/11 08:04:18;;;;;;;3.47;2.10;;;8.70;99.90;;;;;;5067740;28;20179;-67
2022/02/11 08:06:44;;;;;;;4.27;2.13;;;8.80;99.90;;;;;;5080858;28;20935;-66
2022/02/11 08:09:10;;;;;;;2.10;1.90;;;8.80;99.90;;;;;;5082982;28;20260;-66
2022/02/11 08:11:37;;;;;;;4.00;2.23;;;8.90;99.90;;;;;;5081152;28;20182;-66
2022/02/11 08:14:03;;;;;;;5.53;2.03;;;9.40;99.90;;;;;;5082639;28;20236;-66
2022/02/11 08:16:30;;;;;;;3.20;1.83;;;9.50;99.90;;;;;;5074775;28;20186;-65
2022/02/11 08:18:58;;;;;;;4.20;1.70;;;9.50;99.90;;;;;;5057848;28;20192;-66
2022/02/11 08:21:24;;;;;;;5.67;1.80;;;9.50;99.90;;;;;;5091710;28;20209;-65
2022/02/11 08:23:53;;;;;;;2.53;1.70;;;9.50;99.90;;;;;;5089419;28;20182;-65
2022/02/11 08:26:20;;;;;;;3.83;1.80;;;9.50;99.90;;;;;;5081147;28;20200;-65
2022/02/11 08:28:47;;;;;;;3.20;1.80;;;9.50;99.90;;;;;;5070484;28;20896;-65
2022/02/11 08:31:14;;;;;;;4.57;1.97;;;9.60;99.90;;;;;;5062407;28;20210;-65
2022/02/11 08:33:42;;;;;;;4.73;1.70;;;9.70;99.90;;;;;;5076322;28;20199;-65
2022/02/11 08:36:10;;;;;;;2.73;1.80;;;9.70;99.90;;;;;;5079800;28;20243;-65
2022/02/11 08:39:13;;;;;;;2.40;1.80;;;9.80;99.90;;;;;;5079653;28;20186;-65
2022/02/11 08:41:40;;;;;;;4.00;1.70;;;9.80;99.90;;;;;;5097899;28;20347;-65
2022/02/11 08:44:06;;;;;;;3.27;1.70;;;9.90;99.90;;;;;;5081498;28;20209;-66
2022/02/11 08:46:33;;;;;;;2.70;1.93;;;10.00;99.90;;;;;;5080575;28;20183;-65
2022/02/11 08:48:59;;;;;;;2.63;1.50;;;10.00;99.90;;;;;;5079580;28;22033;-65
2022/02/11 08:51:27;;;;;;;7.43;2.07;;;10.10;99.90;;;;;;5078249;28;20218;-66
2022/02/11 08:53:56;;;;;;;2.90;2.10;;;10.20;99.90;;;;;;5079989;28;20193;-64
2022/02/11 08:56:22;;;;;;;2.23;1.70;;;10.30;99.90;;;;;;5081487;28;20223;-66
2022/02/11 08:58:49;;;;;;;4.23;1.80;;;10.30;99.90;;;;;;5082199;28;20273;-66
2022/02/11 09:01:15;;;;;;;3.23;1.90;;;10.40;99.90;;;;;;5075918;28;21631;-66
2022/02/11 09:03:42;;;;;;;4.40;1.80;;;10.40;99.90;;;;;;5077556;28;20189;-66
2022/02/11 09:06:08;;;;;;;3.87;2.03;;;10.50;99.90;;;;;;5077933;28;20297;-66
2022/02/11 09:08:36;;;;;;;2.90;1.93;;;10.50;99.90;;;;;;5074103;28;20183;-65
2022/02/11 09:11:08;;;;;;;4.10;1.90;;;10.60;99.90;;;;;;5082633;28;20904;-65
2022/02/11 09:13:35;;;;;;;3.03;2.23;;;10.60;99.90;;;;;;5079374;28;20685;-65
2022/02/11 09:16:01;;;;;;;3.67;1.90;;;10.60;99.90;;;;;;5079049;28;20198;-66
2022/02/11 09:18:28;;;;;;;5.27;2.20;;;10.70;99.90;;;;;;5083958;28;20243;-65
2022/02/11 09:20:56;;;;;;;4.13;2.00;;;10.80;99.90;;;;;;5062839;28;20206;-66
2022/02/11 09:23:23;;;;;;;4.27;2.07;;;11.00;99.90;;;;;;5081976;28;20526;-66
2022/02/11 09:25:50;;;;;;;4.17;2.30;;;11.10;99.90;;;;;;5081056;28;20213;-65
2022/02/11 09:28:16;;;;;;;3.77;2.17;;;11.10;99.90;;;;;;5071662;28;20862;-65
2022/02/11 09:30:43;;;;;;;7.30;1.97;;;11.10;99.90;;;;;;5082297;28;20236;-65
2022/02/11 09:33:11;;;;;;;4.47;2.23;;;11.20;99.90;;;;;;5079098;28;20303;-66
2022/02/11 09:35:38;;;;;;;6.13;2.30;;;11.20;99.90;;;;;;5083464;28;20228;-66
2022/02/11 09:38:04;;;;;;;5.33;2.20;;;11.30;99.90;;;;;;5074653;28;20194;-66
2022/02/11 09:40:30;;;;;;;5.77;2.23;;;11.30;99.90;;;;;;5084323;28;20300;-66
2022/02/11 09:42:57;;;;;;;6.30;1.90;;;11.50;99.90;;;;;;5089555;28;20186;-66
2022/02/11 09:45:25;;;;;;;5.13;1.97;;;11.50;99.90;;;;;;5083109;28;20196;-67
2022/02/11 09:47:51;;;;;;;5.17;2.40;;;11.50;99.90;;;;;;5086371;28;20186;-66
2022/02/11 09:50:22;;;;;;;3.93;1.83;;;11.50;99.90;;;;;;5064578;28;20190;-65
2022/02/11 09:52:55;;;;;;;4.20;1.97;;;11.70;99.90;;;;;;5071754;28;20637;-66
2022/02/11 09:55:35;;;;;;;6.23;2.23;;;11.70;99.90;;;;;;5075983;28;20183;-66
2022/02/11 09:58:13;;;;;;;7.00;2.10;;;11.90;99.90;;;;;;5074438;28;20189;-66
2022/02/11 10:00:44;;;;;;;4.40;2.00;;;12.00;99.90;;;;;;5071699;28;20209;-66
2022/02/11 10:03:25;;;;;;;9.90;1.83;;;12.00;99.90;;;;;;5071790;28;20269;-66
2022/02/11 10:06:04;;;;;;;3.97;2.17;;;12.20;99.90;;;;;;5072423;28;20713;-66
2022/02/11 10:08:37;;;;;;;2.63;1.57;;;12.20;99.90;;;;;;5079711;28;20189;-66
2022/02/11 10:11:08;;;;;;;8.03;1.87;;;12.30;99.90;;;;;;5081589;28;20256;-66
2022/02/11 10:13:41;;;;;;;3.37;1.80;;;12.40;99.90;;;;;;5069145;28;20190;-66
2022/02/11 10:16:13;;;;;;;2.40;1.73;;;12.50;99.90;;;;;;5074635;28;20269;-66
2022/02/11 10:18:42;;;;;;;6.13;1.83;;;12.60;99.90;;;;;;5073293;28;20201;-64
2022/02/11 10:21:15;;;;;;;3.93;2.10;;;12.60;99.90;;;;;;5060840;28;20261;-65
2022/02/11 10:23:43;;;;;;;4.90;2.10;;;12.70;99.90;;;;;;5072460;28;20182;-64
2022/02/11 10:26:22;;;;;;;2.60;1.83;;;12.80;99.90;;;;;;5068367;28;20193;-65
2022/02/11 10:28:57;;;;;;;3.20;1.90;;;13.10;99.90;;;;;;5071317;28;20183;-65
2022/02/11 10:31:31;;;;;;;5.77;2.03;;;13.20;99.90;;;;;;5078355;28;20674;-66
2022/02/11 10:34:00;;;;;;;3.20;1.77;;;13.40;99.90;;;;;;5073603;28;20232;-66
2022/02/11 10:36:49;;;;;;;2.70;1.63;;;13.70;99.90;;;;;;5087814;28;20185;-66
2022/02/11 10:39:20;;;;;;;5.17;2.07;;;14.00;99.90;;;;;;5073177;28;20218;-66
2022/02/11 10:42:02;;;;;;;4.23;2.00;;;14.40;99.90;;;;;;5068681;28;20198;-66
2022/02/11 10:44:36;;;;;;;5.30;1.80;;;14.80;99.90;;;;;;5067759;28;20195;-66
2022/02/11 10:47:16;;;;;;;2.53;1.63;;;15.30;99.90;;;;;;5084490;28;20181;-67
2022/02/11 10:49:48;;;;;;;3.27;1.87;;;16.10;99.90;;;;;;5060965;28;20701;-67
2022/02/11 10:52:24;;;;;;;4.73;1.63;;;16.70;99.90;;;;;;5074849;28;20218;-67
2022/02/11 10:54:53;;;;;;;3.93;2.00;;;17.20;99.90;;;;;;5059264;28;20197;-66
2022/02/11 10:57:27;;;;;;;3.80;1.73;;;17.60;99.90;;;;;;5080634;28;20197;-66
2022/02/11 10:59:55;;;;;;;4.40;1.83;;;17.70;99.90;;;;;;5060278;28;20224;-67
2022/02/11 11:02:24;;;;;;;2.73;1.93;;;17.60;99.90;;;;;;5067857;28;20213;-67
2022/02/11 11:04:55;;;;;;;4.07;1.90;;;17.70;99.90;;;;;;5083157;28;20182;-66
2022/02/11 11:07:29;;;;;;;5.50;2.10;;;17.70;99.90;;;;;;5072024;28;20715;-66
2022/02/11 11:09:57;;;;;;;4.33;1.77;;;17.60;99.90;;;;;;5077500;28;20194;-67
2022/02/11 11:12:26;;;;;;;5.33;1.70;;;17.50;99.90;;;;;;5065581;28;20273;-66
2022/02/11 11:14:59;;;;;;;6.27;1.80;;;17.00;99.90;;;;;;5077163;28;20190;-66
2022/02/11 11:17:26;;;;;;;3.33;2.10;;;16.60;99.90;;;;;;5079073;28;20198;-67
2022/02/11 11:19:56;;;;;;;3.83;1.90;;;16.30;99.90;;;;;;5071670;28;20199;-67
2022/02/11 11:22:32;;;;;;;6.90;2.03;;;16.10;99.90;;;;;;5068608;28;20914;-66
2022/02/11 11:25:03;;;;;;;3.57;1.80;;;15.90;99.90;;;;;;5067278;28;20185;-66
2022/02/11 11:27:57;;;;;;;5.00;1.90;;;15.80;99.90;;;;;;5083081;28;20183;-66
2022/02/11 11:30:40;;;;;;;6.23;2.33;;;15.80;99.90;;;;;;5080194;28;20199;-66
2022/02/11 11:33:12;;;;;;;3.63;1.67;;;15.70;99.90;;;;;;5076897;28;20206;-66
2022/02/11 11:35:44;;;;;;;5.87;1.73;;;15.60;99.90;;;;;;5069397;28;20179;-66
2022/02/11 11:38:21;;;;;;;6.57;2.20;;;15.50;99.90;;;;;;5069353;28;20735;-66
2022/02/11 11:41:08;;;;;;;2.83;1.87;;;15.30;99.90;;;;;;5064049;28;20471;-66
2022/02/11 11:43:46;;;;;;;3.57;1.80;;;15.20;99.90;;;;;;5079970;28;20682;-67
2022/02/11 11:46:21;;;;;;;3.37;1.73;;;15.20;99.90;;;;;;5066667;28;20220;-66
2022/02/11 11:48:59;;;;;;;5.77;2.20;;;15.20;99.90;;;;;;5082642;28;20235;-66
2022/02/11 11:51:37;;;;;;;3.87;1.63;;;15.20;99.90;;;;;;5072466;28;20194;-66
2022/02/11 11:54:23;;;;;;;6.27;1.97;;;15.10;99.90;;;;;;5081959;28;20206;-66
2022/02/11 11:56:53;;;;;;;4.20;1.57;;;15.00;99.90;;;;;;5077894;28;20194;-66
2022/02/11 11:59:46;;;;;;;4.50;2.03;;;15.00;99.90;;;;;;5066959;28;20225;-65
2022/02/11 12:02:26;;;;;;;5.63;2.07;;;14.90;99.90;;;;;;5065383;28;20575;-66
2022/02/11 12:04:56;;;;;;;6.47;2.00;;;14.90;99.90;;;;;;5065922;28;20247;-66
2022/02/11 12:07:30;;;;;;;3.37;1.50;;;14.90;99.90;;;;;;5065139;28;20194;-66
2022/02/11 12:09:59;;;;;;;4.23;1.83;;;14.80;99.90;;;;;;5073801;28;20608;-66
2022/02/11 12:12:29;;;;;;;3.70;1.70;;;14.80;99.90;;;;;;5067490;28;20205;-66
2022/02/11 12:14:58;;;;;;;5.33;1.63;;;14.80;99.90;;;;;;5073876;28;20275;-66
2022/02/11 12:17:26;;;;;;;5.23;2.00;;;14.70;99.90;;;;;;5071934;28;20195;-66
2022/02/11 12:19:54;;;;;;;2.90;1.90;;;14.60;99.90;;;;;;5066061;28;20214;-67
2022/02/11 12:22:30;;;;;;;2.53;1.50;;;14.60;99.90;;;;;;5063739;28;20187;-66
2022/02/11 12:27:48;;;;;;;3.53;1.70;;;14.60;99.90;;;;;;5071924;28;20186;-66
2022/02/11 12:30:22;;;;;;;5.07;1.60;;;14.50;99.90;;;;;;5074607;28;20220;-67
2022/02/11 12:32:58;;;;;;;3.73;1.80;;;14.50;99.90;;;;;;5080504;28;20220;-66
2022/02/11 12:35:31;;;;;;;4.30;1.57;;;14.30;99.90;;;;;;5074931;28;20243;-66
2022/02/11 12:38:01;;;;;;;4.53;1.67;;;14.40;99.90;;;;;;5078964;28;20285;-66
2022/02/11 12:40:37;;;;;;;3.27;1.60;;;14.30;99.90;;;;;;5075964;28;20206;-66
2022/02/11 12:43:06;;;;;;;2.13;1.50;;;14.20;99.90;;;;;;5074662;28;20197;-67
2022/02/11 12:45:36;;;;;;;2.57;1.80;;;14.20;99.90;;;;;;5068602;28;20698;-66
2022/02/11 12:48:09;;;;;;;6.77;1.97;;;14.20;99.90;;;;;;5066141;28;20186;-66
2022/02/11 12:50:39;;;;;;;5.03;2.40;;;14.20;99.90;;;;;;5063679;28;20205;-66
2022/02/11 12:53:12;;;;;;;3.60;1.63;;;14.10;99.90;;;;;;5064008;28;20195;-66
2022/02/11 12:55:39;;;;;;;3.07;1.63;;;14.10;99.90;;;;;;5072645;28;20205;-67
2022/02/11 12:58:10;;;;;;;3.57;1.80;;;14.10;99.90;;;;;;5072365;28;20202;-66
2022/02/11 13:00:40;;;;;;;6.83;1.70;;;14.00;99.90;;;;;;5078458;28;20256;-66
2022/02/11 13:03:09;;;;;;;3.13;1.90;;;14.00;99.90;;;;;;5086771;28;20198;-65
2022/02/11 13:05:44;;;;;;;4.27;1.97;;;14.00;99.90;;;;;;5078534;28;20222;-66
2022/02/11 13:08:23;;;;;;;5.83;1.60;;;14.00;99.90;;;;;;5082237;28;20270;-66
2022/02/11 13:11:05;;;;;;;2.63;1.40;;;13.90;99.90;;;;;;5072136;28;20594;-67
2022/02/11 13:13:33;;;;;;;6.20;1.90;;;13.90;99.90;;;;;;5063566;28;20218;-67
2022/02/11 13:16:05;;;;;;;4.57;2.00;;;13.80;99.90;;;;;;5068713;28;20194;-66
2022/02/11 13:18:35;;;;;;;2.87;1.60;;;13.90;99.90;;;;;;5071004;28;20230;-66
2022/02/11 13:21:10;;;;;;;4.97;1.73;;;13.80;99.90;;;;;;5072743;28;20855;-66
2022/02/11 13:23:39;;;;;;;6.13;1.90;;;13.80;99.90;;;;;;5078037;28;20210;-66
2022/02/11 13:26:12;;;;;;;3.73;1.73;;;13.70;99.90;;;;;;5073314;28;20379;-65
2022/02/11 13:28:48;;;;;;;6.07;1.90;;;13.70;99.90;;;;;;5071178;28;20183;-66
2022/02/11 13:31:15;;;;;;;7.00;1.80;;;13.70;99.90;;;;;;5075468;28;20198;-65
2022/02/11 13:33:42;;;;;;;5.03;1.73;;;13.60;99.90;;;;;;5074427;28;20784;-65
2022/02/11 13:36:23;;;;;;;5.40;2.07;;;13.60;99.90;;;;;;5064132;28;20197;-66
2022/02/11 13:38:50;;;;;;;5.40;1.90;;;13.60;99.90;;;;;;5073928;28;20688;-66
2022/02/11 13:41:24;;;;;;;5.33;2.30;;;13.60;99.90;;;;;;5063340;28;20919;-66
2022/02/11 13:44:08;;;;;;;3.13;1.40;;;13.50;99.90;;;;;;5075912;28;20194;-67
2022/02/11 13:46:42;;;;;;;4.70;2.03;;;13.40;99.90;;;;;;5074155;28;20194;-66
2022/02/11 13:49:15;;;;;;;4.93;2.00;;;13.40;99.90;;;;;;5069505;28;20659;-67
2022/02/11 13:51:43;;;;;;;4.03;1.90;;;13.40;99.90;;;;;;5073136;28;20198;-67
2022/02/11 13:54:15;;;;;;;3.80;2.03;;;13.40;99.90;;;;;;5064945;28;20195;-66
2022/02/11 13:56:47;;;;;;;2.37;1.90;;;13.40;99.90;;;;;;5071442;28;20950;-65
2022/02/11 13:59:25;;;;;;;2.60;1.60;;;13.30;99.90;;;;;;5086458;28;20304;-66
2022/02/11 14:02:01;;;;;;;3.67;1.70;;;13.20;99.90;;;;;;5080302;28;20639;-66
2022/02/11 14:04:32;;;;;;;2.47;1.67;;;13.20;99.90;;;;;;5079372;28;20186;-65
2022/02/11 14:07:00;;;;;;;2.77;1.83;;;13.20;99.90;;;;;;5078439;28;21099;-65
2022/02/11 14:09:38;;;;;;;2.90;1.77;;;13.10;99.90;;;;;;5084046;28;20710;-65
2022/02/11 14:12:14;;;;;;;3.17;1.70;;;13.10;99.90;;;;;;5073077;28;21370;-66
2022/02/11 14:14:58;;;;;;;3.60;1.90;;;13.00;99.90;;;;;;5068922;28;20194;-66
2022/02/11 14:17:27;;;;;;;4.20;1.90;;;12.90;99.90;;;;;;5075279;28;20186;-65
2022/02/11 14:19:53;;;;;;;8.07;2.27;;;12.90;99.90;;;;;;5079607;28;20222;-67
2022/02/11 14:22:20;;;;;;;3.23;1.60;;;12.90;99.90;;;;;;5065250;28;20183;-67
2022/02/11 14:24:46;;;;;;;3.07;1.57;;;12.80;99.90;;;;;;5088116;28;20182;-66
2022/02/11 14:27:13;;;;;;;2.70;2.13;;;12.70;99.90;;;;;;5079102;28;20485;-66
2022/02/11 14:29:39;;;;;;;5.10;2.50;;;12.70;99.90;;;;;;5073728;28;20197;-65
2022/02/11 14:32:06;;;;;;;4.83;2.40;;;12.70;99.90;;;;;;5085885;28;20263;-65
2022/02/11 14:34:33;;;;;;;7.57;2.50;;;12.60;99.90;;;;;;5089121;28;20954;-66
2022/02/11 14:37:01;;;;;;;4.70;2.50;;;12.50;99.90;;;;;;5088338;28;20194;-65
2022/02/11 14:39:28;;;;;;;4.43;2.43;;;12.50;99.90;;;;;;5083985;28;20219;-65
2022/02/11 14:42:00;;;;;;;5.27;2.43;;;12.50;99.90;;;;;;5075392;28;20688;-67
2022/02/11 14:44:30;;;;;;;10.53;2.80;;;12.40;99.90;;;;;;5086262;28;20282;-66
2022/02/11 14:46:59;;;;;;;4.67;2.70;;;12.30;99.90;;;;;;5084854;28;20178;-66
2022/02/11 14:49:27;;;;;;;5.07;2.37;;;12.30;99.90;;;;;;5082335;28;20220;-66
2022/02/11 14:52:02;;;;;;;7.33;2.70;;;12.20;99.90;;;;;;5086871;28;20580;-66
2022/02/11 14:54:31;;;;;;;10.03;3.17;;;12.20;99.90;;;;;;5087702;28;20897;-66
2022/02/11 14:56:58;;;;;;;6.70;2.90;;;12.10;99.90;;;;;;5087095;28;20186;-66
2022/02/11 14:59:25;;;;;;;3.77;2.43;;;12.10;99.90;;;;;;5084860;28;20237;-65
2022/02/11 15:01:54;;;;;;;10.93;2.70;;;12.00;99.90;;;;;;5075085;28;20651;-66
2022/02/11 15:04:21;;;;;;;6.53;3.10;;;12.00;99.90;;;;;;5082737;28;20186;-66
2022/02/11 15:06:51;;;;;;;5.43;2.93;;;12.00;99.90;;;;;;5073261;28;20299;-67
2022/02/11 15:09:20;;;;;;;4.53;2.53;;;11.90;99.90;;;;;;5066920;28;20233;-66
2022/02/11 15:11:47;;;;;;;4.80;2.70;;;11.90;99.90;;;;;;5078896;28;20221;-65
2022/02/11 15:14:14;;;;;;;4.33;2.77;;;11.70;99.90;;;;;;5074638;28;20205;-66
2022/02/11 15:16:40;;;;;;;5.53;3.43;;;11.70;99.90;;;;;;5050398;28;20266;-65
2022/02/11 15:19:07;;;;;;;7.30;3.10;;;11.70;99.90;;;;;;5067328;28;20190;-66
2022/02/11 15:21:34;;;;;;;5.97;3.07;;;11.60;99.90;;;;;;5076837;28;20190;-66
2022/02/11 15:24:01;;;;;;;4.97;3.10;;;11.50;99.90;;;;;;5069105;28;20194;-66
2022/02/11 15:26:28;;;;;;;8.00;3.50;;;11.40;99.90;;;;;;5074271;28;20680;-65
2022/02/11 15:28:55;;;;;;;7.40;3.67;;;11.30;99.90;;;;;;5069009;28;20572;-66
2022/02/11 15:31:21;;;;;;;6.43;3.50;;;11.20;99.90;;;;;;5067125;28;20201;-66
2022/02/11 15:33:47;;;;;;;8.67;3.87;;;11.10;99.90;;;;;;5086390;28;20210;-66
2022/02/11 15:36:15;;;;;;;10.90;3.93;;;11.00;99.90;;;;;;5087005;28;20198;-66
2022/02/11 15:38:42;;;;;;;6.70;4.30;;;10.90;99.90;;;;;;5087322;28;20202;-65
2022/02/11 15:41:09;;;;;;;9.60;3.97;;;10.80;99.90;;;;;;5082974;28;20222;-66
2022/02/11 15:43:39;;;;;;;7.13;3.40;;;10.70;99.90;;;;;;5067334;28;20222;-65
2022/02/11 15:46:08;;;;;;;6.00;3.20;;;10.60;99.90;;;;;;5073445;28;20217;-66
2022/02/11 15:48:39;;;;;;;6.63;3.67;;;10.50;99.90;;;;;;5094189;28;20195;-66
2022/02/11 15:51:07;;;;;;;6.50;3.60;;;10.50;99.90;;;;;;5078258;28;20201;-66
2022/02/11 15:53:34;;;;;;;5.37;3.80;;;10.50;99.90;;;;;;5066359;28;20230;-65
2022/02/11 15:56:02;;;;;;;13.63;4.00;;;10.40;99.90;;;;;;5069577;28;20274;-66
2022/02/11 15:58:29;;;;;;;7.80;4.13;;;10.40;99.90;;;;;;5085168;28;20182;-66
2022/02/11 16:00:56;;;;;;;5.73;3.50;;;10.30;99.90;;;;;;5069293;28;20368;-65
2022/02/11 16:03:26;;;;;;;7.83;3.97;;;10.20;99.90;;;;;;5082751;28;20190;-65
2022/02/11 16:05:55;;;;;;;7.70;4.40;;;10.20;99.90;;;;;;5070293;28;20221;-65
2022/02/11 16:08:22;;;;;;;7.80;4.47;;;10.20;99.90;;;;;;5079011;28;20186;-65
2022/02/11 16:10:48;;;;;;;10.70;5.20;;;10.10;99.90;;;;;;5058064;28;20194;-65
2022/02/11 16:13:14;;;;;;;8.77;5.07;;;10.10;99.90;;;;;;5077591;28;20198;-65
2022/02/11 16:15:41;;;;;;;11.93;5.10;;;10.00;99.90;;;;;;5084056;28;20190;-66
2022/02/11 16:18:15;;;;;;;9.53;4.07;;;10.00;99.90;;;;;;5069463;28;20303;-66
2022/02/11 16:20:45;;;;;;;6.17;4.00;;;10.00;99.90;;;;;;5080945;28;20214;-69
2022/02/11 16:23:18;;;;;;;6.10;3.43;;;9.90;99.90;;;;;;5078618;28;20622;-69
2022/02/11 16:25:46;;;;;;;10.60;5.43;;;9.90;99.90;;;;;;5077011;28;20190;-69
2022/02/11 16:28:16;;;;;;;14.90;7.10;;;9.80;99.90;;;;;;5073411;28;20206;-69
2022/02/11 16:30:44;;;;;;;10.10;5.27;;;9.80;99.90;;;;;;5067293;28;20236;-69
2022/02/11 16:33:12;;;;;;;9.97;4.40;;;9.80;99.90;;;;;;5082513;28;20214;-68
2022/02/11 16:35:42;;;;;;;10.87;4.93;;;9.80;99.90;;;;;;5070433;28;20198;-69
2022/02/11 16:38:11;;;;;;;9.53;4.93;;;9.70;99.90;;;;;;5070038;28;20596;-69
2022/02/11 16:40:38;;;;;;;8.00;4.47;;;9.70;99.90;;;;;;5078234;28;20301;-69
2022/02/11 16:43:05;;;;;;;12.50;5.03;;;9.70;99.90;;;;;;5066669;28;20233;-69
2022/02/11 16:45:33;;;;;;;6.67;4.43;;;9.60;99.90;;;;;;5071365;28;20194;-69
2022/02/11 16:48:03;;;;;;;8.07;4.97;;;9.60;99.90;;;;;;5077231;28;20220;-69
2022/02/11 16:50:30;;;;;;;4.83;3.17;;;9.50;99.90;;;;;;5076388;28;20199;-70
2022/02/11 16:52:57;;;;;;;9.07;3.77;;;9.50;99.90;;;;;;5072552;28;20186;-68